Time;durP1;ratioP1;P1;durP2;ratioP2;P2;SDS_P1;SDS_P2;PMS_P1;PMS_P2;Temp;Humidity;BMP_temperature;BMP_pressure;BME280_temperature;BME280_humidity;BME280_pressure;Samples;Min_cycle;Max_cycle;Signal;HPM_P1;HPM_P2
2023/06/23 00:02:06;;;;;;;46.17;34.83;;;15.90;99.90;;;;;;6181642;23;20009;-77
2023/06/23 00:04:32;;;;;;;44.67;32.25;;;15.90;99.90;;;;;;6181911;23;20032;-77
2023/06/23 00:06:59;;;;;;;39.95;30.83;;;15.90;99.90;;;;;;6181417;23;20009;-77
2023/06/23 00:09:25;;;;;;;49.22;36.55;;;15.90;99.90;;;;;;6156944;23;20041;-77
2023/06/23 00:11:50;;;;;;;54.63;38.50;;;16.00;99.90;;;;;;6132818;23;20016;-77
2023/06/23 00:14:16;;;;;;;42.28;32.58;;;15.90;99.90;;;;;;6182130;23;20048;-77
2023/06/23 00:16:42;;;;;;;45.60;34.03;;;15.90;99.90;;;;;;6132136;23;20009;-77
2023/06/23 00:19:07;;;;;;;62.35;40.30;;;15.90;99.90;;;;;;6181172;23;20017;-77
2023/06/23 00:21:33;;;;;;;50.85;36.78;;;15.90;99.90;;;;;;6181563;23;20469;-77
2023/06/23 00:23:59;;;;;;;52.08;38.85;;;15.90;99.90;;;;;;6157471;23;20508;-77
2023/06/23 00:26:25;;;;;;;32.85;29.27;;;15.90;99.90;;;;;;6134246;23;20017;-77
2023/06/23 00:28:51;;;;;;;47.97;36.90;;;15.90;99.90;;;;;;6183271;23;20013;-77
2023/06/23 00:31:17;;;;;;;44.92;36.33;;;15.90;99.90;;;;;;6183420;23;20100;-77
2023/06/23 00:33:42;;;;;;;38.25;34.28;;;15.90;99.90;;;;;;6183942;23;20005;-77
2023/06/23 00:36:08;;;;;;;40.63;35.75;;;15.90;99.90;;;;;;6183306;23;20084;-77
2023/06/23 00:38:34;;;;;;;37.65;33.67;;;15.90;99.90;;;;;;6134467;23;20013;-77
2023/06/23 00:41:01;;;;;;;40.25;35.92;;;15.90;99.90;;;;;;6183581;23;20040;-77
2023/06/23 00:43:26;;;;;;;44.58;38.63;;;15.90;99.90;;;;;;6133650;23;20039;-77
2023/06/23 00:45:52;;;;;;;46.47;39.28;;;15.90;99.90;;;;;;6183479;23;20465;-77
2023/06/23 00:48:18;;;;;;;71.10;46.67;;;15.90;99.90;;;;;;6133961;23;20011;-77
2023/06/23 00:50:44;;;;;;;40.53;36.35;;;15.90;99.90;;;;;;6183784;23;20346;-77
2023/06/23 00:53:10;;;;;;;41.67;37.42;;;15.80;99.90;;;;;;6133737;23;20064;-77
2023/06/23 00:55:37;;;;;;;47.05;41.50;;;15.90;99.90;;;;;;6133909;23;20013;-77
2023/06/23 00:58:03;;;;;;;45.03;40.35;;;15.90;99.90;;;;;;6183481;23;20092;-77
2023/06/23 01:00:29;;;;;;;48.22;43.20;;;15.80;99.90;;;;;;6134154;23;20067;-77
2023/06/23 01:02:59;;;;;;;45.60;40.95;;;15.90;99.90;;;;;;6158394;23;20055;-77
2023/06/23 01:05:36;;;;;;;74.00;54.20;;;15.80;99.90;;;;;;6134207;23;20049;-77
2023/06/23 01:08:17;;;;;;;72.85;49.78;;;15.90;99.90;;;;;;6133073;23;20047;-77
2023/06/23 01:10:56;;;;;;;54.75;47.08;;;15.90;99.90;;;;;;6134252;23;20017;-77
2023/06/23 01:13:24;;;;;;;56.17;45.42;;;15.80;99.90;;;;;;6183296;23;20124;-77
2023/06/23 01:16:15;;;;;;;73.05;51.38;;;15.80;99.90;;;;;;6182793;23;20051;-77
2023/06/23 01:19:16;;;;;;;53.60;47.92;;;15.80;99.90;;;;;;6183681;23;20367;-77
2023/06/23 01:22:10;;;;;;;56.03;48.85;;;15.80;99.90;;;;;;6083286;23;20017;-77
2023/06/23 01:24:59;;;;;;;87.68;57.63;;;15.80;99.90;;;;;;6182966;23;20013;-77
2023/06/23 01:27:58;;;;;;;130.88;69.70;;;15.80;99.90;;;;;;6158310;23;20005;-77
2023/06/23 01:30:26;;;;;;;71.03;54.40;;;15.80;99.90;;;;;;6134066;23;20091;-77
2023/06/23 01:32:58;;;;;;;86.65;61.63;;;15.80;99.90;;;;;;6157507;23;20389;-77
2023/06/23 01:35:29;;;;;;;84.75;59.35;;;15.80;99.90;;;;;;6158014;23;20009;-77
2023/06/23 01:38:30;;;;;;;82.55;57.63;;;15.70;99.90;;;;;;6158250;23;20012;-77
2023/06/23 01:40:58;;;;;;;67.97;57.40;;;15.80;99.90;;;;;;6182798;23;20096;-77
2023/06/23 01:43:31;;;;;;;162.18;79.57;;;15.70;99.90;;;;;;6182827;23;20021;-77
2023/06/23 01:46:03;;;;;;;55.00;49.10;;;15.70;99.90;;;;;;6133067;23;20017;-77
2023/06/23 01:48:32;;;;;;;98.10;62.60;;;15.70;99.90;;;;;;6158084;23;20012;-77
2023/06/23 01:50:58;;;;;;;54.25;48.63;;;15.70;99.90;;;;;;6158450;23;20013;-77
2023/06/23 01:53:26;;;;;;;98.72;60.72;;;15.70;99.90;;;;;;6182408;23;20005;-77
2023/06/23 01:55:54;;;;;;;98.32;65.28;;;15.70;99.90;;;;;;6182936;23;20040;-77
2023/06/23 01:58:21;;;;;;;60.58;52.70;;;15.60;99.90;;;;;;6158023;23;20013;-77
2023/06/23 02:00:47;;;;;;;59.35;49.35;;;15.60;99.90;;;;;;6157835;23;20020;-77
2023/06/23 02:03:14;;;;;;;72.53;58.25;;;15.60;99.90;;;;;;6182778;23;20021;-77
2023/06/23 02:05:40;;;;;;;76.57;57.03;;;15.60;99.90;;;;;;6183097;23;20508;-77
2023/06/23 02:08:08;;;;;;;79.15;58.70;;;15.60;99.90;;;;;;6182390;23;20095;-77
2023/06/23 02:10:35;;;;;;;105.40;65.47;;;15.60;99.90;;;;;;6158265;23;20352;-77
2023/06/23 02:13:01;;;;;;;97.60;61.55;;;15.50;99.90;;;;;;6182801;23;20028;-77
2023/06/23 02:15:28;;;;;;;77.63;59.45;;;15.50;99.90;;;;;;6133609;23;20438;-77
2023/06/23 02:17:55;;;;;;;68.93;56.20;;;15.40;99.90;;;;;;6182317;23;20016;-77
2023/06/23 02:20:23;;;;;;;70.70;56.95;;;15.40;99.90;;;;;;6157956;23;20084;-77
2023/06/23 02:22:51;;;;;;;110.07;65.30;;;15.40;99.90;;;;;;6132259;23;20024;-77
2023/06/23 02:25:17;;;;;;;74.20;57.03;;;15.40;99.90;;;;;;6182641;23;20354;-77
2023/06/23 02:27:45;;;;;;;68.70;55.55;;;15.30;99.90;;;;;;6182535;23;20020;-77
2023/06/23 02:30:12;;;;;;;110.72;67.05;;;15.30;99.90;;;;;;6182471;23;20148;-77
2023/06/23 02:32:39;;;;;;;123.10;72.35;;;15.20;99.90;;;;;;6133002;23;20445;-77
2023/06/23 02:35:07;;;;;;;60.53;53.20;;;15.20;99.90;;;;;;6132935;23;20410;-77
2023/06/23 02:37:35;;;;;;;77.65;58.67;;;15.10;99.90;;;;;;6182331;23;20063;-77
2023/06/23 02:40:16;;;;;;;79.88;63.63;;;15.10;99.90;;;;;;6182787;23;20013;-77
2023/06/23 02:42:46;;;;;;;119.15;71.03;;;15.10;99.90;;;;;;6132757;23;20013;-77
2023/06/23 02:45:18;;;;;;;119.28;70.57;;;15.10;99.90;;;;;;6182386;23;20110;-77
2023/06/23 02:47:46;;;;;;;118.50;68.63;;;15.00;99.90;;;;;;6157242;23;20037;-77
2023/06/23 02:50:13;;;;;;;105.88;72.70;;;14.90;99.90;;;;;;6182584;23;20013;-77
2023/06/23 02:52:45;;;;;;;73.85;62.08;;;14.90;99.90;;;;;;6132778;23;20013;-77
2023/06/23 02:55:12;;;;;;;135.57;80.60;;;14.90;99.90;;;;;;6133235;23;20009;-77
2023/06/23 02:57:39;;;;;;;99.82;75.88;;;14.80;99.90;;;;;;6182410;23;20048;-77
2023/06/23 03:00:13;;;;;;;134.65;83.43;;;14.80;99.90;;;;;;6132614;23;20017;-77
2023/06/23 03:02:42;;;;;;;110.00;79.55;;;14.80;99.90;;;;;;6132390;23;20044;-77
2023/06/23 03:05:08;;;;;;;100.20;77.72;;;14.70;99.90;;;;;;6182400;23;20094;-77
2023/06/23 03:07:34;;;;;;;157.23;90.00;;;14.70;99.90;;;;;;6157343;23;20041;-77
2023/06/23 03:10:00;;;;;;;158.48;95.32;;;14.70;99.90;;;;;;6157715;23;20009;-77
2023/06/23 03:12:25;;;;;;;116.43;83.20;;;14.70;99.90;;;;;;6181588;23;20009;-77
2023/06/23 03:14:53;;;;;;;139.85;95.40;;;14.70;99.90;;;;;;6132841;23;20471;-77
2023/06/23 03:17:22;;;;;;;135.27;87.88;;;14.80;99.90;;;;;;6157455;23;20013;-77
2023/06/23 03:20:08;;;;;;;129.23;91.22;;;14.80;99.90;;;;;;6182510;23;20017;-77
2023/06/23 03:22:39;;;;;;;173.82;95.28;;;14.80;99.90;;;;;;6132291;23;20071;-77
2023/06/23 03:25:12;;;;;;;132.65;87.72;;;14.80;99.90;;;;;;6157455;23;20023;-77
2023/06/23 03:27:39;;;;;;;;;;;14.80;99.90;;;;;;6132301;23;20009;-77
2023/06/23 03:30:14;;;;;;;145.60;98.18;;;14.80;99.90;;;;;;6157543;23;19920;-77
2023/06/23 03:32:44;;;;;;;153.15;96.28;;;14.80;99.90;;;;;;6132933;23;20009;-77
2023/06/23 03:35:14;;;;;;;120.50;84.78;;;14.80;99.90;;;;;;6132991;23;20060;-77
2023/06/23 03:37:50;;;;;;;151.13;89.57;;;14.80;99.90;;;;;;6155774;23;20349;-77
2023/06/23 03:40:19;;;;;;;182.25;93.22;;;14.80;99.90;;;;;;6181915;23;20389;-77
2023/06/23 03:42:49;;;;;;;104.32;78.28;;;14.70;99.90;;;;;;6182225;23;20055;-77
2023/06/23 03:45:16;;;;;;;135.68;89.97;;;14.70;99.90;;;;;;6182327;23;20408;-77
2023/06/23 03:47:43;;;;;;;124.68;84.80;;;14.70;99.90;;;;;;6157107;23;20039;-77
2023/06/23 03:50:13;;;;;;;113.00;83.93;;;14.60;99.90;;;;;;6181866;23;20013;-77
2023/06/23 03:52:41;;;;;;;172.00;90.25;;;14.70;99.90;;;;;;6132090;23;20009;-77
2023/06/23 03:55:09;;;;;;;142.05;90.03;;;14.60;99.90;;;;;;6182120;23;20067;-77
2023/06/23 03:57:36;;;;;;;111.03;82.32;;;14.60;99.90;;;;;;6181921;23;20489;-77
2023/06/23 04:00:03;;;;;;;114.50;83.90;;;14.60;99.90;;;;;;6183750;23;20017;-77
2023/06/23 04:02:31;;;;;;;137.13;88.28;;;14.60;99.90;;;;;;6184254;23;20021;-77
2023/06/23 04:04:59;;;;;;;88.60;75.22;;;14.60;99.90;;;;;;6184304;23;20054;-77
2023/06/23 04:07:26;;;;;;;147.60;87.95;;;14.60;99.90;;;;;;6182970;23;20020;-77
2023/06/23 04:09:53;;;;;;;110.88;81.20;;;14.60;99.90;;;;;;6184071;23;20044;-77
2023/06/23 04:12:21;;;;;;;73.60;66.05;;;14.60;99.90;;;;;;6134561;23;20450;-77
2023/06/23 04:14:49;;;;;;;155.43;91.25;;;14.60;99.90;;;;;;6184245;23;20325;-77
2023/06/23 04:17:19;;;;;;;106.95;81.00;;;14.60;99.90;;;;;;6182654;23;20020;-77
2023/06/23 04:19:48;;;;;;;108.85;80.78;;;14.60;99.90;;;;;;6184049;23;20063;-77
2023/06/23 04:22:17;;;;;;;119.93;85.15;;;14.60;99.90;;;;;;6183551;23;20019;-77
2023/06/23 04:24:44;;;;;;;257.60;111.57;;;14.70;99.90;;;;;;6184492;23;20013;-77
2023/06/23 04:27:13;;;;;;;118.82;84.97;;;14.70;99.90;;;;;;6183398;23;20019;-77
2023/06/23 04:29:41;;;;;;;169.60;91.97;;;14.80;99.90;;;;;;6184009;23;20013;-77
2023/06/23 04:32:09;;;;;;;170.15;94.88;;;14.80;99.90;;;;;;6183297;23;20013;-77
2023/06/23 04:34:35;;;;;;;163.65;109.38;;;14.80;99.90;;;;;;6158765;23;20020;-77
2023/06/23 04:37:10;;;;;;;97.63;77.25;;;15.10;99.90;;;;;;6158927;23;20024;-76
2023/06/23 04:39:51;;;;;;;115.40;73.78;;;15.40;99.90;;;;;;6183821;23;20393;-76
2023/06/23 04:42:24;;;;;;;82.82;71.80;;;15.60;99.90;;;;;;6158430;23;20021;-76
2023/06/23 04:44:55;;;;;;;73.00;65.75;;;15.60;99.90;;;;;;6183846;23;20067;-76
2023/06/23 04:47:22;;;;;;;90.85;73.22;;;15.70;99.90;;;;;;6133483;23;20483;-76
2023/06/23 04:49:58;;;;;;;84.95;72.38;;;15.70;99.90;;;;;;6134253;23;20342;-76
2023/06/23 04:52:26;;;;;;;106.82;78.85;;;15.70;99.90;;;;;;6134018;23;20013;-76
2023/06/23 04:54:56;;;;;;;133.32;87.35;;;15.70;99.90;;;;;;6159376;23;20009;-76
2023/06/23 04:57:28;;;;;;;136.32;90.28;;;15.70;99.90;;;;;;6158156;23;20023;-76
2023/06/23 04:59:59;;;;;;;104.82;83.20;;;15.70;99.90;;;;;;6183882;23;20009;-76
2023/06/23 05:02:26;;;;;;;118.80;88.53;;;15.80;99.90;;;;;;6182939;23;20392;-76
2023/06/23 05:04:55;;;;;;;121.57;86.05;;;15.80;99.90;;;;;;6133126;23;20009;-76
2023/06/23 05:07:23;;;;;;;113.63;80.97;;;15.90;99.90;;;;;;6182900;23;20454;-76
2023/06/23 05:09:51;;;;;;;98.18;77.15;;;16.00;99.90;;;;;;6183468;23;20013;-76
2023/06/23 05:12:19;;;;;;;119.32;86.43;;;16.20;99.90;;;;;;6183174;23;20342;-76
2023/06/23 05:14:47;;;;;;;79.55;71.32;;;16.20;99.90;;;;;;6133589;23;20016;-76
2023/06/23 05:17:15;;;;;;;100.85;72.72;;;16.50;99.90;;;;;;6183296;23;20013;-76
2023/06/23 05:19:43;;;;;;;70.32;62.80;;;16.80;99.90;;;;;;6182798;23;20136;-76
2023/06/23 05:22:13;;;;;;;62.55;56.40;;;17.00;99.90;;;;;;6183244;23;20017;-76
2023/06/23 05:24:43;;;;;;;70.40;59.50;;;17.10;99.90;;;;;;6182866;23;20512;-76
2023/06/23 05:27:09;;;;;;;81.65;65.00;;;17.10;99.90;;;;;;6133578;23;20079;-76
2023/06/23 05:29:43;;;;;;;71.60;58.95;;;17.00;99.90;;;;;;6183247;23;20092;-76
2023/06/23 05:32:11;;;;;;;107.68;69.63;;;17.00;99.90;;;;;;6181518;23;20009;-76
2023/06/23 05:34:39;;;;;;;71.15;59.35;;;16.90;99.90;;;;;;6182137;23;20013;-76
2023/06/23 05:37:06;;;;;;;62.85;56.35;;;16.80;99.90;;;;;;6182722;23;20092;-76
2023/06/23 05:39:35;;;;;;;70.32;62.42;;;16.80;99.90;;;;;;6179156;23;20060;-76
2023/06/23 05:42:01;;;;;;;60.05;54.22;;;16.70;99.90;;;;;;6182478;23;20009;-75
2023/06/23 05:44:27;;;;;;;67.20;60.33;;;16.70;99.90;;;;;;6157820;23;20349;-76
2023/06/23 05:46:58;;;;;;;61.00;54.88;;;16.80;99.90;;;;;;6182484;23;20009;-73
2023/06/23 05:49:26;;;;;;;80.18;53.78;;;17.20;99.90;;;;;;6158546;23;20084;-76
2023/06/23 05:52:04;;;;;;;47.40;43.45;;;17.80;99.90;;;;;;6157147;23;20060;-75
2023/06/23 05:54:34;;;;;;;45.60;41.47;;;18.50;99.90;;;;;;6182700;23;20056;-76
2023/06/23 05:57:03;;;;;;;41.72;38.00;;;19.10;99.90;;;;;;6183216;23;20044;-78
2023/06/23 05:59:43;;;;;;;38.00;34.88;;;19.60;99.90;;;;;;6184200;23;20017;-76
2023/06/23 06:02:16;;;;;;;39.58;36.10;;;19.80;99.90;;;;;;6181912;23;20020;-75
2023/06/23 06:04:47;;;;;;;38.20;34.58;;;19.80;99.90;;;;;;6185502;23;20007;-77
2023/06/23 06:07:15;;;;;;;35.25;32.05;;;19.40;99.90;;;;;;6133126;23;20009;-75
2023/06/23 06:09:42;;;;;;;36.55;32.95;;;19.10;99.90;;;;;;6184384;23;20346;-77
2023/06/23 06:12:09;;;;;;;39.08;35.38;;;18.80;99.90;;;;;;6175369;23;20020;-79
2023/06/23 06:14:37;;;;;;;36.50;33.13;;;18.50;99.90;;;;;;6195997;23;20083;-77
2023/06/23 06:17:03;;;;;;;35.85;32.67;;;18.40;99.90;;;;;;6134761;23;20480;-77
2023/06/23 06:19:30;;;;;;;34.95;31.92;;;18.20;99.90;;;;;;6159645;23;20101;-77
2023/06/23 06:21:57;;;;;;;34.00;31.05;;;18.20;99.90;;;;;;6158678;23;20088;-77
2023/06/23 06:24:25;;;;;;;31.17;28.67;;;18.10;99.90;;;;;;6137323;23;20500;-78
2023/06/23 06:26:55;;;;;;;31.58;28.75;;;18.10;99.90;;;;;;6185115;23;20013;-78
2023/06/23 06:29:21;;;;;;;28.58;26.15;;;18.00;99.90;;;;;;6161275;23;20013;-78
2023/06/23 06:31:48;;;;;;;30.52;27.83;;;18.00;99.90;;;;;;6185131;23;20031;-78
2023/06/23 06:34:17;;;;;;;32.67;29.77;;;18.00;99.90;;;;;;6186679;23;20395;-77
2023/06/23 06:36:44;;;;;;;30.55;27.83;;;18.00;99.90;;;;;;6136144;23;20024;-78
2023/06/23 06:39:11;;;;;;;28.80;26.20;;;18.00;99.90;;;;;;6186286;23;20016;-77
2023/06/23 06:41:37;;;;;;;29.48;26.98;;;18.00;99.90;;;;;;6161661;23;20357;-78
2023/06/23 06:44:03;;;;;;;28.55;25.92;;;18.00;99.90;;;;;;6185557;23;20381;-78
2023/06/23 06:46:30;;;;;;;28.30;25.77;;;18.00;99.90;;;;;;6158698;23;20012;-77
2023/06/23 06:48:56;;;;;;;26.77;24.38;;;18.00;99.90;;;;;;6183802;23;20092;-77
2023/06/23 06:51:22;;;;;;;27.30;24.80;;;18.00;99.90;;;;;;6183232;23;20045;-76
2023/06/23 06:53:49;;;;;;;26.70;24.33;;;18.10;99.90;;;;;;6133160;23;20077;-76
2023/06/23 06:56:16;;;;;;;24.17;22.10;;;18.10;99.90;;;;;;6183227;23;20449;-77
2023/06/23 06:58:42;;;;;;;21.20;19.38;;;18.10;99.90;;;;;;6182438;23;20695;-77
2023/06/23 07:01:08;;;;;;;24.10;22.13;;;18.20;99.90;;;;;;6159072;23;20052;-78
2023/06/23 07:03:34;;;;;;;19.92;18.08;;;18.20;99.90;;;;;;6156344;23;20040;-77
2023/06/23 07:06:00;;;;;;;18.52;16.77;;;18.20;99.90;;;;;;6181906;23;20018;-76
2023/06/23 07:08:25;;;;;;;26.10;23.70;;;18.20;99.90;;;;;;6182462;23;20349;-76
2023/06/23 07:10:51;;;;;;;25.63;23.38;;;18.30;99.90;;;;;;6182466;23;20060;-76
2023/06/23 07:13:17;;;;;;;23.17;21.15;;;18.30;99.90;;;;;;6182352;23;20019;-76
2023/06/23 07:15:43;;;;;;;23.40;21.10;;;18.40;99.90;;;;;;6157497;23;20011;-75
2023/06/23 07:18:08;;;;;;;24.23;21.98;;;18.40;99.90;;;;;;6133475;23;20075;-76
2023/06/23 07:20:34;;;;;;;17.05;15.48;;;18.50;99.90;;;;;;6182414;23;20339;-76
2023/06/23 07:23:00;;;;;;;20.70;19.00;;;18.60;99.90;;;;;;6182103;23;20044;-76
2023/06/23 07:25:26;;;;;;;17.30;15.85;;;18.60;99.90;;;;;;6182502;23;20025;-76
2023/06/23 07:27:51;;;;;;;17.70;16.23;;;18.70;99.90;;;;;;6182087;23;20037;-76
2023/06/23 07:30:18;;;;;;;15.55;14.23;;;18.80;99.90;;;;;;6182425;23;20009;-76
2023/06/23 07:32:45;;;;;;;13.52;12.23;;;18.90;99.90;;;;;;6157337;23;20092;-76
2023/06/23 07:35:11;;;;;;;15.20;13.80;;;19.10;99.90;;;;;;6182355;23;20020;-76
2023/06/23 07:37:38;;;;;;;15.02;13.63;;;19.10;99.90;;;;;;6157075;23;20013;-76
2023/06/23 07:40:04;;;;;;;14.13;12.82;;;19.30;99.90;;;;;;6157490;23;20020;-76
2023/06/23 07:42:30;;;;;;;12.10;11.10;;;19.40;99.90;;;;;;6182271;23;20013;-76
2023/06/23 07:44:56;;;;;;;9.68;8.88;;;19.70;99.90;;;;;;6157489;23;20067;-76
2023/06/23 07:47:22;;;;;;;9.80;8.90;;;20.00;99.90;;;;;;6182037;23;20126;-75
2023/06/23 07:49:47;;;;;;;10.15;9.15;;;20.50;99.90;;;;;;6157546;23;20048;-76
2023/06/23 07:52:13;;;;;;;7.90;6.93;;;21.30;99.90;;;;;;6132927;23;20462;-76
2023/06/23 07:54:39;;;;;;;8.38;7.68;;;22.10;99.90;;;;;;6182240;23;20009;-76
2023/06/23 07:57:08;;;;;;;8.52;7.70;;;22.80;99.90;;;;;;6181949;23;20013;-76
2023/06/23 07:59:34;;;;;;;7.57;6.88;;;23.50;99.90;;;;;;6182178;23;20045;-76
2023/06/23 08:02:00;;;;;;;7.07;6.47;;;24.10;99.90;;;;;;6182204;23;20024;-75
2023/06/23 08:04:26;;;;;;;6.78;6.10;;;24.70;99.90;;;;;;6182329;23;20009;-76
2023/06/23 08:06:51;;;;;;;6.50;5.90;;;25.10;99.90;;;;;;6181864;23;20023;-76
2023/06/23 08:09:17;;;;;;;5.50;5.00;;;25.40;99.90;;;;;;6182415;23;20009;-76
2023/06/23 08:11:43;;;;;;;6.50;5.45;;;25.70;99.90;;;;;;6182068;23;20538;-76
2023/06/23 08:14:09;;;;;;;6.78;6.10;;;26.00;99.90;;;;;;6182035;23;20009;-76
2023/06/23 08:16:34;;;;;;;6.38;5.78;;;26.30;99.90;;;;;;6182012;23;20013;-76
2023/06/23 08:19:00;;;;;;;6.43;5.30;;;26.60;99.90;;;;;;6182240;23;20084;-76
2023/06/23 08:21:26;;;;;;;7.93;4.80;;;26.70;99.90;;;;;;6182304;23;20288;-76
2023/06/23 08:23:51;;;;;;;6.80;4.63;;;27.00;99.90;;;;;;6181983;23;20511;-76
2023/06/23 08:26:18;;;;;;;5.50;5.00;;;27.30;99.90;;;;;;6181782;23;20006;-76
2023/06/23 08:28:43;;;;;;;5.25;4.47;;;27.70;99.90;;;;;;6181790;23;20104;-76
2023/06/23 08:31:09;;;;;;;4.32;3.92;;;27.80;99.90;;;;;;6182130;23;20017;-76
2023/06/23 08:33:35;;;;;;;5.35;4.90;;;27.80;99.90;;;;;;6182106;23;20006;-76
2023/06/23 08:36:01;;;;;;;7.20;5.95;;;27.80;99.90;;;;;;6181680;23;20036;-75
2023/06/23 08:38:27;;;;;;;6.28;5.68;;;27.90;99.90;;;;;;6181158;23;20020;-76
2023/06/23 08:40:54;;;;;;;8.85;8.10;;;28.00;99.90;;;;;;6181384;23;20013;-76
2023/06/23 08:43:26;;;;;;;8.25;7.38;;;28.30;99.90;;;;;;6181800;23;20084;-75
2023/06/23 08:45:57;;;;;;;7.40;6.72;;;28.50;99.90;;;;;;6183105;23;20024;-76
2023/06/23 08:48:27;;;;;;;5.65;5.20;;;28.80;99.90;;;;;;6183810;23;20036;-76
2023/06/23 08:50:59;;;;;;;6.10;4.82;;;29.10;99.90;;;;;;6183817;23;20014;-75
2023/06/23 08:53:25;;;;;;;5.63;4.78;;;29.20;99.90;;;;;;6183795;23;20009;-76
2023/06/23 08:55:51;;;;;;;7.32;6.63;;;29.30;95.30;;;;;;6183506;23;20032;-76
2023/06/23 08:58:22;;;;;;;7.13;6.35;;;29.30;96.90;;;;;;6183746;23;20021;-76
2023/06/23 09:00:49;;;;;;;6.18;5.57;;;29.40;99.90;;;;;;6183742;23;20090;-76
2023/06/23 09:03:15;;;;;;;7.00;6.40;;;29.50;99.90;;;;;;6183545;23;20024;-76
2023/06/23 09:05:41;;;;;;;6.35;5.75;;;29.60;95.20;;;;;;6183778;23;20013;-75
2023/06/23 09:08:07;;;;;;;7.00;6.40;;;29.60;97.00;;;;;;6183453;23;20354;-76
2023/06/23 09:10:33;;;;;;;6.50;5.68;;;29.60;99.90;;;;;;6183775;23;20005;-76
2023/06/23 09:13:17;;;;;;;5.93;5.32;;;29.70;97.00;;;;;;6183631;23;20316;-76
2023/06/23 09:15:48;;;;;;;6.53;5.93;;;29.90;99.80;;;;;;6183597;23;20020;-76
2023/06/23 09:18:15;;;;;;;5.75;5.25;;;30.10;97.60;;;;;;6183554;23;20032;-76
2023/06/23 09:20:44;;;;;;;4.43;4.03;;;30.30;89.60;;;;;;6183649;23;20070;-76
2023/06/23 09:23:21;;;;;;;4.60;3.65;;;30.50;95.40;;;;;;6183374;23;20411;-76
2023/06/23 09:25:51;;;;;;;5.22;3.80;;;30.70;66.50;;;;;;6183448;23;20071;-76
2023/06/23 09:28:22;;;;;;;4.43;4.03;;;30.60;78.50;;;;;;6183446;23;20505;-76
2023/06/23 09:30:48;;;;;;;5.60;3.90;;;30.60;67.70;;;;;;6183533;23;20006;-76
2023/06/23 09:33:13;;;;;;;8.57;4.20;;;30.50;72.00;;;;;;6183523;23;20396;-76
2023/06/23 09:35:48;;;;;;;4.50;4.10;;;30.50;72.80;;;;;;6183213;23;20017;-76
2023/06/23 09:38:16;;;;;;;4.20;3.80;;;30.60;70.00;;;;;;6183410;23;20013;-76
2023/06/23 09:40:41;;;;;;;4.20;3.85;;;30.70;73.40;;;;;;6183504;23;20024;-76
2023/06/23 09:43:07;;;;;;;3.95;3.58;;;30.60;71.00;;;;;;6182468;23;20338;-76
2023/06/23 09:45:33;;;;;;;4.00;3.20;;;30.80;76.20;;;;;;6182436;23;20013;-76
2023/06/23 09:47:59;;;;;;;4.15;3.13;;;31.10;75.40;;;;;;6182026;23;20020;-76
2023/06/23 09:50:27;;;;;;;4.05;3.65;;;31.30;75.60;;;;;;6183389;23;20009;-77
2023/06/23 09:53:05;;;;;;;3.80;3.28;;;31.60;75.00;;;;;;6158237;23;20009;-77
2023/06/23 09:55:31;;;;;;;4.13;3.60;;;31.70;69.80;;;;;;6182658;23;20132;-76
2023/06/23 09:57:58;;;;;;;4.40;3.80;;;31.70;67.90;;;;;;6182163;23;20083;-76
2023/06/23 10:00:31;;;;;;;5.47;4.05;;;31.90;69.20;;;;;;6182481;23;20009;-76
2023/06/23 10:03:00;;;;;;;4.47;4.00;;;32.10;69.00;;;;;;6182829;23;20500;-76
2023/06/23 10:05:33;;;;;;;6.10;3.75;;;32.30;71.00;;;;;;6183117;23;20454;-76
2023/06/23 10:08:11;;;;;;;4.25;3.88;;;32.40;67.40;;;;;;6182948;23;20040;-76
2023/06/23 10:10:44;;;;;;;4.22;3.83;;;32.50;61.80;;;;;;6182902;23;20357;-76
2023/06/23 10:13:10;;;;;;;7.15;4.30;;;32.60;64.30;;;;;;6133611;23;20322;-76
2023/06/23 10:15:37;;;;;;;5.30;4.30;;;32.60;65.00;;;;;;6183122;23;20020;-76
2023/06/23 10:18:03;;;;;;;7.15;5.00;;;32.60;66.50;;;;;;6182874;23;20024;-77
2023/06/23 10:20:29;;;;;;;4.88;4.18;;;32.70;67.30;;;;;;6183331;23;20020;-76
2023/06/23 10:22:55;;;;;;;6.65;4.93;;;32.90;65.90;;;;;;6182842;23;20013;-76
2023/06/23 10:25:24;;;;;;;5.88;4.20;;;33.00;64.80;;;;;;6182997;23;20350;-77
2023/06/23 10:27:54;;;;;;;3.97;3.67;;;33.10;64.20;;;;;;6131247;23;20013;-76
2023/06/23 10:30:21;;;;;;;5.65;4.07;;;33.20;63.90;;;;;;6182508;23;20009;-75
2023/06/23 10:32:53;;;;;;;5.05;4.45;;;33.40;63.50;;;;;;6181664;23;20013;-76
2023/06/23 10:35:22;;;;;;;3.35;2.90;;;33.30;62.40;;;;;;6186358;23;20013;-76
2023/06/23 10:38:47;;;;;;;;;;;;;;;;;;;;;
2023/06/23 10:42:16;;;;;;;4.47;3.58;;;33.10;61.50;;;;;;6213318;23;20060;-81
2023/06/23 10:52:34;;;;;;;3.05;2.63;;;32.80;59.60;;;;;;5999623;23;20026;-79
2023/06/23 10:59:36;;;;;;;3.88;2.20;;;33.20;61.30;;;;;;6041687;23;20058;-79
2023/06/23 12:33:35;;;;;;;7.28;3.60;;;33.90;49.00;;;;;;6127546;23;20391;-79
2023/06/23 12:41:41;;;;;;;4.55;3.70;;;33.90;54.70;;;;;;6246239;23;20020;-79
2023/06/23 12:44:38;;;;;;;4.50;3.50;;;34.20;52.60;;;;;;6194078;23;20012;-79
2023/06/23 12:47:28;;;;;;;4.80;3.83;;;34.20;49.90;;;;;;6214191;23;20023;-78
2023/06/23 12:50:33;;;;;;;5.38;3.65;;;34.10;52.20;;;;;;6194106;23;20105;-79
2023/06/23 12:53:09;;;;;;;3.60;3.30;;;34.20;51.00;;;;;;6193522;23;20332;-79
2023/06/23 12:59:47;;;;;;;4.78;3.30;;;34.40;46.90;;;;;;6253141;22;20051;-78
2023/06/23 13:02:34;;;;;;;3.42;3.13;;;34.20;54.30;;;;;;6171089;23;20091;-78
2023/06/23 13:05:33;;;;;;;3.78;3.22;;;34.40;53.50;;;;;;6253618;23;20008;-79
2023/06/23 13:08:57;;;;;;;4.70;3.35;;;34.80;52.60;;;;;;6229593;23;20357;-79
2023/06/23 13:11:40;;;;;;;4.47;3.33;;;34.90;53.00;;;;;;6212860;23;20016;-78
2023/06/23 13:18:17;;;;;;;4.72;3.38;;;35.20;51.50;;;;;;6153226;23;20021;-77
2023/06/23 13:21:24;;;;;;;4.55;3.50;;;35.30;50.60;;;;;;6129858;23;20016;-79
2023/06/23 13:23:53;;;;;;;4.53;3.50;;;35.20;51.10;;;;;;6194765;23;20012;-78
2023/06/23 13:27:11;;;;;;;;;;;;;;;;;;;;;
2023/06/23 13:30:41;;;;;;;5.95;3.50;;;34.80;50.40;;;;;;6244990;23;20012;-79
2023/06/23 13:33:14;;;;;;;6.43;3.80;;;34.80;49.30;;;;;;6191188;23;20597;-79
2023/06/23 13:36:12;;;;;;;5.03;3.47;;;35.00;53.50;;;;;;6196386;23;20391;-77
2023/06/23 13:39:19;;;;;;;5.28;3.50;;;35.10;52.00;;;;;;6212202;22;20020;-78
2023/06/23 13:42:38;;;;;;;4.88;3.60;;;35.20;52.00;;;;;;6150838;23;20032;-78
2023/06/23 13:46:00;;;;;;;5.93;3.53;;;35.30;51.60;;;;;;6135850;23;20024;-78
2023/06/23 13:49:08;;;;;;;5.15;3.65;;;35.10;51.00;;;;;;6145121;23;20021;-78
2023/06/23 13:51:40;;;;;;;5.93;3.70;;;35.00;51.10;;;;;;6163738;22;20519;-75
2023/06/23 13:54:06;;;;;;;4.32;3.55;;;34.90;52.90;;;;;;6248709;22;20018;-76
2023/06/23 13:56:32;;;;;;;4.15;3.50;;;34.50;50.90;;;;;;6248367;22;20012;-76
2023/06/23 13:58:57;;;;;;;6.20;3.50;;;34.10;51.20;;;;;;6249467;22;20026;-76
2023/06/23 14:01:23;;;;;;;4.45;3.45;;;33.90;52.70;;;;;;6248816;22;20012;-76
2023/06/23 14:03:52;;;;;;;3.50;3.13;;;33.90;52.10;;;;;;6274811;22;20106;-76
2023/06/23 14:06:22;;;;;;;3.72;3.15;;;33.70;52.10;;;;;;6273651;22;20103;-76
2023/06/23 14:08:51;;;;;;;9.90;4.10;;;33.60;50.70;;;;;;6273527;22;20012;-76
2023/06/23 14:11:17;;;;;;;5.80;4.07;;;33.50;52.20;;;;;;6273643;22;20018;-75
2023/06/23 14:13:42;;;;;;;6.93;3.60;;;33.30;50.90;;;;;;6274039;22;20347;-76
2023/06/23 14:16:12;;;;;;;3.65;3.35;;;33.20;51.60;;;;;;6272330;22;20020;-76
2023/06/23 14:18:38;;;;;;;4.65;3.65;;;32.90;51.70;;;;;;6273907;22;20016;-76
2023/06/23 14:21:04;;;;;;;7.63;3.72;;;32.90;53.10;;;;;;6222765;22;20043;-76
2023/06/23 14:23:29;;;;;;;4.95;3.40;;;32.90;53.90;;;;;;6247939;22;20012;-77
2023/06/23 14:25:55;;;;;;;3.70;3.30;;;32.80;52.70;;;;;;6272296;22;20066;-76
2023/06/23 14:28:21;;;;;;;4.38;3.35;;;32.70;54.00;;;;;;6273267;22;20047;-76
2023/06/23 14:30:47;;;;;;;4.53;3.60;;;32.60;54.20;;;;;;6273524;22;20016;-76
2023/06/23 14:33:13;;;;;;;5.20;3.85;;;32.60;52.80;;;;;;6217306;22;20012;-76
2023/06/23 14:35:38;;;;;;;5.07;3.58;;;32.50;53.10;;;;;;6273212;22;20035;-75
2023/06/23 14:38:05;;;;;;;4.63;3.65;;;32.40;52.60;;;;;;6273857;22;20310;-75
2023/06/23 14:40:32;;;;;;;4.53;3.67;;;32.10;52.50;;;;;;6274076;22;20408;-75
2023/06/23 14:42:57;;;;;;;3.65;3.25;;;31.70;52.00;;;;;;6273369;22;20047;-75
2023/06/23 14:45:23;;;;;;;8.98;4.03;;;31.30;54.80;;;;;;6273224;22;20019;-75
2023/06/23 14:47:49;;;;;;;4.97;3.90;;;31.10;53.90;;;;;;6273168;22;20042;-75
2023/06/23 14:50:15;;;;;;;6.22;3.97;;;31.00;54.20;;;;;;6273787;22;20428;-75
2023/06/23 14:52:41;;;;;;;5.47;3.78;;;30.70;53.30;;;;;;6273533;22;20393;-75